Nearby METAR Reports

 

KBAX - Bad Axe, Michigan, USA
Distance from station: ESE 22mi, 35km
Updated: Sat, 24-Jul-2021 12:35am EDT
Mostly cloudy
Mostly cloudy
 Wind from S
Wind: S 9 mph , 15 km/h
Temperature: 66°F , 19°C
Dew Point: 61°F , 16°C
Humidity: 83%
Barometer: 30.06 inHg , 1017.9 hPa
Clouds: Mostly cloudy
Visibility: 10 miles , 16 km
Cloud details: Partly cloudy 2300 ft
Mostly cloudy 7000 ft
2021/07/24 04:35 KBAX 240435Z AUTO 17008KT 10SM SCT023 BKN070 19/16 A3006 RMK AO2 T01900155
KFNT - Flint, Michigan, USA
Distance from station: SSW 68mi, 109km
Updated: Fri, 23-Jul-2021 11:53pm EDT
Clear
Clear
 Wind from S
Wind: S 9 mph , 15 km/h
Temperature: 68°F , 20°C
Dew Point: 66°F , 19°C
Humidity: 94%
Barometer: 30.06 inHg , 1017.9 hPa
Clouds: Clear
Visibility: 10 miles , 16 km
2021/07/24 03:53 KFNT 240353Z AUTO 17008KT 10SM CLR 20/19 A3006 RMK AO2 SLP176 T02000189
KMBS - Saginaw, Michigan, USA
Distance from station: SW 44mi, 70km
Updated: Fri, 23-Jul-2021 11:53pm EDT
Clear
Clear
 Wind from SE
Wind: SE 6 mph , 9 km/h
Temperature: 70°F , 21°C
Dew Point: 66°F , 19°C
Humidity: 88%
Barometer: 30.04 inHg , 1017.3 hPa
Clouds: Clear
Visibility: 10 miles , 16 km
2021/07/24 03:53 KMBS 240353Z AUTO 13005KT 10SM CLR 21/19 A3004 RMK AO2 SLP170 T02110189
 
KDTW - Detroit/Wayne, Michigan, USA
Distance from station: SSE 117mi, 188km
Updated: Fri, 23-Jul-2021 11:53pm EDT
Overcast
Overcast
 Wind from SE
Wind: SE 7 mph , 11 km/h
Temperature: 72°F , 22°C
Dew Point: 64°F , 18°C
Humidity: 78%
Barometer: 30.08 inHg , 1018.6 hPa
Clouds: Overcast
Visibility: 8 miles , 13 km
Cloud details: Partly cloudy 2500 ft
Overcast 9000 ft
2021/07/24 03:53 KDTW 240353Z 14006KT 8SM SCT025 OVC090 22/18 A3008 RMK AO2 SLP182 T02170183
KP58 - Port Hope, Michigan, USA
Distance from station: ENE 30mi, 48km
Updated: Fri, 23-Jul-2021 11:55pm EDT

 Wind from varies
Wind: varies 3 mph , 6 km/h
Temperature: 70°F , 21°C
Dew Point: 63°F , 17°C
Humidity: 78%
Barometer: 30.04 inHg , 1017.3 hPa
2021/07/24 03:55 KP58 240355Z AUTO VRB03KT 21/17 A3004 RMK AO1 SLP166 T02060167
KCFS - Caro/Tuscola, Michigan, USA
Distance from station: S 31mi, 50km
Updated: Sat, 24-Jul-2021 12:35am EDT
Clear
Clear
 Wind from SE
Wind: SE 5 mph , 7 km/h
Temperature: 68°F , 20°C
Dew Point: 61°F , 16°C
Humidity: 78%
Barometer: 30.05 inHg , 1017.6 hPa
Clouds: Clear
Visibility: 10 miles , 16 km
2021/07/24 04:35 KCFS 240435Z AUTO 13004KT 10SM CLR 20/16 A3005 RMK AO2 T01950155
 
KPHN - Port Huron, Michigan, USA
Distance from station: SSE 81mi, 131km
Updated: Sat, 24-Jul-2021 12:35am EDT
Overcast
Overcast
 Wind from SE
Wind: SE 3 mph , 6 km/h
Temperature: 68°F , 20°C
Dew Point: 55°F , 13°C
Humidity: 64%
Barometer: 30.09 inHg , 1019 hPa
Clouds: Overcast
Visibility: 10 miles , 16 km
Cloud details: Overcast 2500 ft
2021/07/24 04:35 KPHN 240435Z AUTO 14003KT 10SM OVC025 20/13 A3009 RMK AO2
KPTK - Pontiac, Michigan, USA
Distance from station: S 86mi, 138km
Updated: Fri, 23-Jul-2021 11:53pm EDT
Partly cloudy
Partly cloudy
 Wind from SE
Wind: SE 6 mph , 9 km/h
Temperature: 68°F , 20°C
Dew Point: 63°F , 17°C
Humidity: 83%
Barometer: 30.07 inHg , 1018.3 hPa
Clouds: Partly cloudy
Visibility: 10 miles , 16 km
Cloud details: Few Clouds 1800 ft
Few Clouds 5000 ft
Partly cloudy 12000 ft
Partly cloudy 24000 ft
2021/07/24 03:53 KPTK 240353Z 14005KT 10SM FEW018 FEW050 SCT120 SCT240 20/17 A3007 RMK AO2 SLP180 LAST T02000172
KMTC - Selfridge Angb, Michigan, USA
Distance from station: SSE 94mi, 151km
Updated: Sat, 24-Jul-2021 12:26am EDT
Partly cloudy
Partly cloudy
 Wind from SSE
Wind: SSE 7 mph , 11 km/h
Temperature: 68°F , 20°C
Dew Point: 66°F , 19°C
Humidity: 94%
Barometer: 30.07 inHg , 1018.3 hPa
Clouds: Partly cloudy
Visibility: 10 miles , 16 km
Cloud details: Partly cloudy 2600 ft
2021/07/24 04:26 KMTC 240426Z AUTO 15006KT 10SM SCT026 20/19 A3007 RMK AO2 SLP185 $